Latest Weather Observations for Yarrawonga

IDV60801

Issued at 7:35 am EST Wednesday 3 September 2014 (issued every 30 minutes, with the page automatically refreshed every 10 minutes)

About weather observations | Map of weather stations | Latest weather observations for VIC | Other Formats
Station Details ID: 081124 Name: YARRAWONGA Lat: -36.03 Lon: 146.03 Height: 128.9 m
Data from the previous 72 hours. | See also: Recent months at Yarrawonga
Date/Time
EST
Temp
°C
App
Temp
°C
Dew
Point
Rel
Hum
%
Delta-T
°C
Wind Press
QNH
hPa
Press
MSL
hPa
Rain
since 9 am
mm
Dir
 
Spd
km/h
Gust
km/h
Spd
kts
Gust
kts
03/07:30am 4.2 1.5 3.9 98 0.1 SW 7 11 4 6 1021.6 1021.7 0.2
03/07:00am 2.6 -1.5 2.3 98 0.1 WSW 13 15 7 8 1021.3 1021.4 0.0
03/06:30am 1.3 -1.7 1.0 98 0.1 WSW 6 7 3 4 1021.1 1021.2 0.0
03/06:00am 2.1 -1.3 1.8 98 0.1 SW 9 11 5 6 1021.1 1021.2 0.0
03/05:30am 2.3 -1.1 2.0 98 0.1 SW 9 11 5 6 1021.1 1021.2 0.0
03/05:00am 1.9 -1.5 1.6 98 0.1 SSW 9 13 5 7 1020.7 1020.8 0.0
03/04:30am 1.8 -2.0 1.5 98 0.1 SSW 11 15 6 8 1020.6 1020.7 0.0
03/04:00am 1.5 -1.6 1.2 98 0.1 SW 7 9 4 5 1020.7 1020.8 0.0
03/03:30am 1.3 -0.9 1.0 98 0.1 SW 2 4 1 2 1020.6 1020.7 0.0
03/03:00am 1.8 -1.1 1.5 98 0.1 WSW 6 7 3 4 1020.6 1020.7 0.0
03/02:30am 2.5 -1.2 2.2 98 0.1 WSW 11 13 6 7 1020.7 1020.8 0.0
03/02:00am 3.2 -1.5 2.9 98 0.1 WSW 17 20 9 11 1020.9 1021.0 0.0
03/01:30am 3.5 -0.5 2.9 96 0.2 WSW 13 17 7 9 1021.0 1021.1 0.0
03/01:00am 3.5 -1.3 2.8 95 0.3 SW 17 20 9 11 1020.9 1021.0 0.0
03/12:30am 3.2 -1.2 2.6 96 0.2 WSW 15 17 8 9 1020.8 1020.9 0.0
03/12:00am 3.4 -0.3 2.5 94 0.4 WSW 11 15 6 8 1020.9 1021.0 0.0
 
Date/Time
EST
Temp
°C
App
Temp
°C
Dew
Point
Rel
Hum
%
Delta-T
°C
Wind Press
QNH
hPa
Press
MSL
hPa
Rain
since 9 am
mm
Dir
 
Spd
km/h
Gust
km/h
Spd
kts
Gust
kts
02/11:30pm 4.4 0.0 2.8 89 0.7 SW 15 19 8 10 1020.9 1021.0 0.0
02/11:00pm 3.6 0.2 1.6 87 0.8 SW 9 13 5 7 1020.9 1021.0 0.0
02/10:30pm 5.4 1.3 2.1 79 1.3 SSW 13 17 7 9 1020.8 1020.9 0.0
02/10:00pm 6.1 1.2 2.0 75 1.7 SW 17 22 9 12 1020.7 1020.8 0.0
02/09:30pm 6.4 1.1 2.1 74 1.8 SW 19 22 10 12 1020.4 1020.5 0.0
02/09:00pm 7.0 1.2 2.3 72 1.9 SW 22 26 12 14 1020.2 1020.3 0.0
02/08:30pm 6.5 2.1 2.6 76 1.6 SW 15 20 8 11 1020.1 1020.2 0.0
02/08:00pm 6.8 2.1 3.1 77 1.6 WSW 17 19 9 10 1019.8 1019.9 0.0
02/07:30pm 6.5 2.8 4.7 88 0.8 WSW 13 17 7 9 1019.6 1019.7 0.0
02/07:00pm 8.8 4.3 4.4 74 1.9 SW 17 20 9 11 1019.1 1019.2 0.0
02/06:30pm 9.6 4.7 4.2 69 2.4 SSW 19 26 10 14 1018.6 1018.7 0.0
02/06:00pm 10.1 6.0 4.5 68 2.5 SSW 15 24 8 13 1018.4 1018.5 0.0
02/05:30pm 11.3 7.9 5.8 69 2.6 S 13 17 7 9 1018.0 1018.0 0.0
02/05:00pm 12.3 7.6 5.2 62 3.3 S 19 28 10 15 1017.2 1017.2 0.0
02/04:30pm 12.9 7.7 5.3 60 3.6 S 22 30 12 16 1017.0 1017.0 0.0
02/04:00pm 13.7 5.9 4.8 55 4.1 S 35 43 19 23 1016.8 1016.8 0.0
02/03:33pm 14.3 5.6 4.3 51 4.6 SSW 39 57 21 31 1016.3 1016.3 0.0
02/03:30pm 14.5 6.3 4.8 52 4.6 SSW 37 54 20 29 1016.2 1016.2 0.0
02/03:00pm 14.7 7.2 4.4 50 4.8 SSW 33 48 18 26 1015.7 1015.7 0.0
02/02:30pm 14.9 7.7 5.7 54 4.4 SW 33 48 18 26 1015.4 1015.4 0.0
02/02:00pm 16.0 9.4 5.9 51 4.9 SW 30 44 16 24 1015.2 1015.2 0.0
02/01:30pm 15.2 7.9 5.4 52 4.7 SSW 33 46 18 25 1015.2 1015.2 0.0
02/01:00pm 15.1 8.6 6.7 57 4.1 SW 30 41 16 22 1015.3 1015.3 0.0
02/12:30pm 13.7 6.9 6.8 63 3.4 SW 32 41 17 22 1015.6 1015.6 0.0
02/12:00pm 13.5 7.9 7.3 66 3.0 SW 26 35 14 19 1015.7 1015.7 0.0
02/11:30am 13.6 6.7 6.5 62 3.4 SSW 32 41 17 22 1015.8 1015.8 0.0
02/11:00am 12.9 7.8 7.6 70 2.6 SSW 24 32 13 17 1016.0 1016.0 0.0
02/10:30am 12.3 6.5 6.4 67 2.8 SSW 26 37 14 20 1016.0 1016.0 0.0
02/10:00am 12.1 7.9 8.2 77 1.9 SW 20 30 11 16 1015.8 1015.8 0.0
02/09:30am 11.0 7.0 8.9 87 1.0 SW 20 30 11 16 1015.9 1015.9 0.0
02/09:00am 9.9 5.7 8.2 89 0.8 SW 20 32 11 17 1015.8 1015.8 12.6
02/08:30am 8.7 5.9 8.4 98 0.1 SW 13 20 7 11 1015.7 1015.7 12.6
02/08:00am 6.7 3.0 6.4 98 0.1 WSW 15 20 8 11 1015.3 1015.3 12.6
02/07:30am 5.3 1.4 5.2 99 0.0 WSW 15 19 8 10 1015.0 1015.0 12.6
02/07:00am 4.6 0.2 4.5 99 0.0 WSW 17 22 9 12 1014.5 1014.6 12.6
02/06:30am 4.6 -0.2 4.5 99 0.0 WSW 19 22 10 12 1014.1 1014.2 12.6
02/06:00am 4.5 0.8 4.2 98 0.1 WSW 13 17 7 9 1013.7 1013.8 12.6
02/05:30am 5.1 0.7 5.0 99 0.0 WSW 17 20 9 11 1013.4 1013.5 12.6
02/05:00am 4.9 0.9 4.8 99 0.0 WSW 15 17 8 9 1013.2 1013.3 12.6
02/04:30am 4.8 1.9 4.5 98 0.1 WSW 9 13 5 7 1013.0 1013.1 12.6
02/04:00am 5.6 1.7 5.3 98 0.1 WSW 15 20 8 11 1012.9 1013.0 12.6
02/03:30am 6.1 1.5 5.8 98 0.1 WSW 19 22 10 12 1012.8 1012.9 12.6
02/03:00am 6.8 2.8 6.5 98 0.1 W 17 24 9 13 1012.5 1012.6 12.6
02/02:30am 7.1 2.8 6.8 98 0.1 WSW 19 26 10 14 1012.4 1012.5 12.6
02/02:00am 7.3 3.4 7.0 98 0.1 W 17 22 9 12 1012.4 1012.5 12.6
02/01:30am 8.0 3.7 7.7 98 0.1 WSW 20 28 11 15 1012.3 1012.4 12.6
02/01:00am 8.4 4.4 8.1 98 0.1 WSW 19 26 10 14 1012.4 1012.5 12.6
02/12:30am 8.8 5.2 8.5 98 0.1 W 17 22 9 12 1012.4 1012.5 12.6
02/12:00am 8.8 5.2 8.5 98 0.1 W 17 22 9 12 1012.3 1012.4 12.6
 
Date/Time
EST
Temp
°C
App
Temp
°C
Dew
Point
Rel
Hum
%
Delta-T
°C
Wind Press
QNH
hPa
Press
MSL
hPa
Rain
since 9 am
mm
Dir
 
Spd
km/h
Gust
km/h
Spd
kts
Gust
kts
01/11:30pm 8.7 5.9 8.4 98 0.1 W 13 19 7 10 1012.0 1012.1 12.6
01/11:00pm 9.0 5.1 8.7 98 0.1 W 19 24 10 13 1011.8 1011.9 12.6
01/10:30pm 9.4 6.0 9.1 98 0.1 W 17 24 9 13 1012.0 1012.1 12.6
01/10:00pm 9.5 6.9 9.2 98 0.1 WNW 13 17 7 9 1012.0 1012.1 12.6
01/09:30pm 9.8 8.0 9.5 98 0.2 WNW 9 13 5 7 1012.0 1012.1 12.6
01/09:00pm 10.0 8.7 9.9 99 0.1 W 7 11 4 6 1012.3 1012.4 12.4
01/08:30pm 10.0 8.6 9.7 98 0.2 WNW 7 11 4 6 1012.0 1012.1 12.2
01/08:00pm 10.2 7.8 10.1 99 0.1 W 13 19 7 10 1012.1 1012.2 12.0
01/07:30pm 10.6 8.3 10.4 99 0.1 W 13 19 7 10 1011.7 1011.8 11.2
01/07:00pm 10.8 8.9 10.6 99 0.1 W 11 15 6 8 1011.5 1011.5 10.0
01/06:30pm 10.9 9.4 10.7 99 0.1 W 9 15 5 8 1011.3 1011.3 7.8
01/06:00pm 10.9 9.1 10.7 99 0.1 W 11 15 6 8 1011.2 1011.2 6.2
01/05:30pm 10.9 8.3 10.7 99 0.1 W 15 17 8 9 1010.9 1010.9 5.2
01/05:00pm 10.9 8.3 10.7 99 0.1 WSW 15 19 8 10 1010.3 1010.3 4.2
01/04:30pm 10.9 8.7 10.7 99 0.1 W 13 17 7 9 1010.6 1010.6 3.0
01/04:00pm 10.9 8.3 10.6 98 0.2 W 15 19 8 10 1010.3 1010.3 1.8
01/03:30pm 11.4 8.9 11.1 98 0.2 W 15 20 8 11 1010.2 1010.2 0.2
01/03:00pm 12.0 8.2 9.9 87 1.1 W 20 30 11 16 1010.3 1010.3 0.0
01/02:30pm 14.6 9.7 6.7 59 3.9 WSW 22 30 12 16 1009.9 1009.9 0.0
01/02:00pm 17.1 13.9 5.1 45 5.8 W 11 20 6 11 1009.7 1009.7 0.0
01/01:30pm 17.4 14.3 5.4 45 5.8 WNW 11 19 6 10 1009.8 1009.8 0.0
01/01:00pm 18.2 15.5 5.4 43 6.3 NNW 9 13 5 7 1010.1 1010.1 0.0
01/12:30pm 17.6 14.7 6.5 48 5.5 N 11 13 6 7 1010.2 1010.2 0.0
01/12:00pm 17.3 13.6 6.5 49 5.4 N 15 20 8 11 1010.6 1010.6 0.0
01/11:30am 16.6 13.6 7.5 55 4.6 N 13 19 7 10 1011.0 1011.0 0.0
01/11:00am 15.8 12.3 7.1 56 4.3 N 15 20 8 11 1011.3 1011.3 0.0
01/10:30am 15.8 11.9 7.1 56 4.3 N 17 24 9 13 1011.6 1011.7 0.0
01/10:00am 14.5 11.4 7.1 61 3.6 NNE 13 22 7 12 1011.8 1011.9 0.0
01/09:30am 13.8 9.9 6.9 63 3.4 NE 17 26 9 14 1012.1 1012.3 0.0
01/09:00am 13.0 9.4 6.8 66 3.0 NNE 15 22 8 12 1012.6 1012.8 0.0
01/08:30am 12.2 9.7 8.3 77 1.9 NE 11 17 6 9 1012.9 1013.1 0.0
01/08:00am 11.2 7.7 7.3 77 1.9 NE 15 22 8 12 1012.8 1013.0 0.0
01/07:30am 10.6 7.6 7.5 81 1.5 NE 13 19 7 10 1013.1 1013.3 0.0
01/07:00am 10.2 7.4 6.9 80 1.6 NE 11 17 6 9 1013.3 1013.5 0.0
01/06:30am 10.1 7.7 6.8 80 1.6 NNE 9 17 5 9 1013.4 1013.6 0.0
01/06:00am 10.0 6.1 6.9 81 1.5 ENE 17 26 9 14 1012.6 1012.8 0.0
01/05:30am 9.8 5.8 6.7 81 1.5 NE 17 22 9 12 1012.9 1013.1 0.0
01/05:00am 9.6 6.4 6.9 83 1.3 NE 13 19 7 10 1013.2 1013.4 0.0
01/04:30am 9.4 6.2 6.7 83 1.3 NE 13 19 7 10 1013.2 1013.4 0.0
01/04:00am 9.0 6.1 6.3 83 1.3 NE 11 15 6 8 1013.4 1013.6 0.0
01/03:30am 9.4 6.5 6.3 81 1.4 NE 11 15 6 8 1013.6 1013.8 0.0
01/03:00am 9.4 6.1 6.3 81 1.4 ENE 13 17 7 9 1013.9 1014.1 0.0
01/02:30am 9.3 6.7 6.0 80 1.5 NE 9 15 5 8 1014.3 1014.5 0.0
01/02:00am 9.5 6.5 5.9 78 1.7 NE 11 15 6 8 1014.3 1014.5 0.0
01/01:30am 9.9 6.9 6.1 77 1.8 NE 11 17 6 9 1014.2 1014.4 0.0
01/01:00am 10.1 7.2 6.3 77 1.8 NE 11 17 6 9 1014.3 1014.5 0.0
01/12:30am 10.5 8.0 6.5 76 1.9 NE 9 11 5 6 1014.7 1014.9 0.0
01/12:00am 11.2 7.9 6.3 72 2.3 ENE 13 17 7 9 1014.6 1014.8 0.0
 
Date/Time
EST
Temp
°C
App
Temp
°C
Dew
Point
Rel
Hum
%
Delta-T
°C
Wind Press
QNH
hPa
Press
MSL
hPa
Rain
since 9 am
mm
Dir
 
Spd
km/h
Gust
km/h
Spd
kts
Gust
kts
31/11:30pm 11.8 8.1 6.5 70 2.5 ENE 15 20 8 11 1014.7 1014.9 0.0
31/11:00pm 11.8 8.6 6.7 71 2.4 ENE 13 19 7 10 1015.1 1015.2 0.0
31/10:30pm 12.4 9.2 6.9 69 2.7 NE 13 15 7 8 1015.6 1015.7 0.0
31/10:00pm 12.7 9.2 7.0 68 2.8 ENE 15 17 8 9 1015.6 1015.7 0.0
31/09:30pm 12.9 9.4 7.1 68 2.8 ENE 15 19 8 10 1015.8 1015.9 0.0
31/09:00pm 12.9 9.4 7.4 69 2.7 ENE 15 17 8 9 1015.8 1015.9 0.0
31/08:30pm 13.2 9.7 7.4 68 2.8 ENE 15 19 8 10 1016.0 1016.1 0.0
31/08:00pm 13.5 10.3 8.4 71 2.6 ENE 15 19 8 10 1016.1 1016.2 0.0
31/07:30pm 12.8 9.6 8.5 75 2.2 ENE 15 19 8 10 1016.2 1016.4 0.0
31/07:00pm 10.7 7.4 6.6 76 1.9 E 13 15 7 8 1016.4 1016.6 0.0
31/06:30pm 10.9 7.6 6.3 73 2.2 E 13 15 7 8 1016.4 1016.6 0.0
31/06:00pm 12.8 10.5 7.3 69 2.7 E 9 11 5 6 1016.4 1016.6 0.0
31/05:30pm 15.8 13.6 7.8 59 4.0 ENE 9 11 5 6 1016.3 1016.5 0.0
31/05:00pm 18.5 16.1 7.0 47 5.8 ENE 9 11 5 6 1016.3 1016.5 0.0
31/04:30pm 19.4 17.0 6.8 44 6.4 ENE 9 15 5 8 1016.3 1016.5 0.0
31/04:00pm 19.9 16.9 5.9 40 7.0 E 11 15 6 8 1016.4 1016.6 0.0
31/03:30pm 20.3 17.6 5.5 38 7.3 ENE 9 15 5 8 1016.7 1016.9 0.0
31/03:00pm 20.3 17.5 5.1 37 7.5 NNE 9 15 5 8 1016.9 1017.1 0.0
31/02:30pm 20.2 17.4 5.1 37 7.4 N 9 17 5 9 1017.3 1017.5 0.0
31/02:00pm 20.0 17.1 6.4 41 6.8 NNE 11 19 6 10 1017.6 1017.8 0.0
31/01:30pm 20.2 17.8 7.2 43 6.7 NNE 9 15 5 8 1018.0 1018.2 0.0
31/01:00pm 19.3 16.5 6.8 44 6.3 NNE 11 20 6 11 1018.6 1018.8 0.0
31/12:30pm 19.0 16.4 7.8 48 5.8 NNE 11 17 6 9 1019.2 1019.4 0.0
31/12:00pm 18.2 16.0 7.9 51 5.3 N 9 17 5 9 1019.9 1020.1 0.0
31/11:30am 16.9 14.0 8.3 57 4.4 NE 13 19 7 10 1020.1 1020.3 0.0
31/11:00am 16.3 13.5 8.5 60 4.0 NE 13 17 7 9 1020.6 1020.8 0.0
31/10:30am 15.2 13.0 9.3 68 3.1 ENE 11 17 6 9 1021.1 1021.3 0.0
31/10:00am 13.7 11.5 9.2 74 2.3 ENE 11 17 6 9 1021.3 1021.5 0.0
31/09:30am 12.4 9.3 8.9 79 1.8 ENE 15 19 8 10 1021.7 1021.9 0.0
31/09:00am 11.4 8.9 9.7 89 0.9 ENE 13 17 7 9 1021.8 1022.0 0.0
31/08:30am 9.7 7.1 9.4 98 0.1 E 13 15 7 8 1021.9 1022.1 0.0
31/08:00am 7.7 5.8 7.6 99 0.0 E 7 9 4 5 1021.9 1022.1 0.0

Other Formats:

Comma delimited format used in spreadsheet applications
http://www.bom.gov.au/fwo/IDV60801/IDV60801.94862.axf

JavaScript Object Notation format (JSON) in row-major order
http://www.bom.gov.au/fwo/IDV60801/IDV60801.94862.json